Aérodrome :
LOGIN :

S'inscrire | Disclaimer

   EN    FR    IT 

 










Légende :    VFR   VFR Marginal   IFR   IFR Intensif   IFR Très Intensif
Visi : 
Plafond : 
>= 8 km
>= 3000ft
5 à 8 km
1000 à 3000 ft
1500m à 5 km
500 à 1000 ft
800 à 1500m
200 à 500 ft
< 800m
< 200 ft
Symboles :   Orages  Brouillard  Fortes neiges  Fortes précipitations  Vent > 20 kt
SIGMETs :   Divers  Orages  Givrage  Turbulence  Onde Orograph.  Cendres Volcan.







- Altitude de l'aérodrome : 580 ft
- Voir les cartes d'approche


LFOA - Avord

DERNIER METAR :
  • 232300Z AUTO 06002KT CAVOK 19/16 Q1018

METARs EXPIRÉS :
  • 232230Z AUTO 00000KT CAVOK 19/16 Q1018
  • 232200Z AUTO 05003KT CAVOK 19/16 Q1018
  • 232130Z AUTO 06002KT CAVOK 20/16 Q1017
  • 232100Z AUTO 06003KT CAVOK 21/16 Q1017
  • 232030Z AUTO 08003KT CAVOK 21/16 Q1017

TAF TAF LFOA
Valide du 23 à 15h jusqu'au 24 à 15h UTC


231400Z 2315/2415 27012KT CAVOK
BECMG 2320/2322 VRB02KT
TEMPO 2400/2406 3000 BR
Pas de NOTAMs connus pour ce terrain.



MET'MAP, la Météo Aéronautique d'un coup d'oeil ! - Copyright ORBIFLY Décembre 2007 - Disclaimer

ORBIFLY MET'MAP TEAM :

Programmation & Développement : Alexandra Zaïnal
Conception & Développement : Baudouin d'Aumeries
Co-Programmation & Développement : Marc-Olivier Méhu
Soutien technique & logistique : Manuel Goepfert

Contact : metmap@orbifly.com




SOURCES & CREDITS :

   NOAA